Airfield :
LOGIN :

Register | Disclaimer

   EN    FR    IT 

 










Legend :    VFR   Marginal VFR   IFR   Intensive IFR   Very Intensive IFR
Visi :
Ceiling :
>= 8 km
>= 3000ft
5 to 8 km
1000 to 3000 ft
1500m to 5 km
500 to 1000 ft
800 to 1500m
200 to 500 ft
< 800m
< 200 ft
Symbols :   Thunderstorms  Fog  Heavy snow  Heavy precipitations  Wind > 20 kt
SIGMETs :     Misc.  Thunderstorms  Icing  Turbulence  Mountain Waves  Volcanic Ashes






- Airport Elevation : 741 ft
- IATA code : PED


LKPD - Pardubice AB

CURRENT METAR :
  • 250330Z VRB01KT 9999 -RA OVC017 13/13 Q1013 RMK BLU

EXPIRED METARs :
  • 250300Z 11002KT 9999 -RA SCT020 BKN040 OVC060 13/13 Q1013 RMK BLU
  • 250230Z VRB01KT 9999 -RA NSC 14/13 Q1013 RMK BLU
  • 250200Z 27004KT 9999 -RA NSC 14/13 Q1013 RMK BLU
  • 250130Z 26005KT 9999 -RA NSC 14/13 Q1013 RMK BLU

TAF TAF LKPD
Valid from the 25 at 00:00 until the 26 at 00:00 UTC


242300Z 2500/2600 28005KT 9999 BKN030
TEMPO 2500/2510 6000 RA BKN020
PROB40
TEMPO 2510/2520 8000 SHRA BKN040TCU
PROB30
TEMPO 2512/2518 4000 TSRA BKN020CB



MET'MAP, your aeronautical weather chart ! - Copyright ORBIFLY December 2007 - Disclaimer

ORBIFLY MET'MAP TEAM :

Programming & Development : Alexandra Zaïnal
Original concept : Baudouin d'Aumeries
Technical & hardware support : Manuel Goepfert
Assistance : Marc-Olivier Méhu

Contact : metmap@orbifly.com




SOURCES & CREDITS :

   NOAA